Time;durP1;ratioP1;P1;durP2;ratioP2;P2;SDS_P1;SDS_P2;PMS_P1;PMS_P2;Temp;Humidity;BMP_temperature;BMP_pressure;BME280_temperature;BME280_humidity;BME280_pressure;Samples;Min_cycle;Max_cycle;Signal;HPM_P1;HPM_P2
2023/05/16 00:00:09;;;;;;;11.27;9.50;;;;;;;;;;523406;28;1205;-81
2023/05/16 00:00:24;;;;;;;10.75;9.30;;;;;;;;;;522809;28;1071;-81
2023/05/16 00:00:40;;;;;;;12.73;9.80;;;;;;;;;;522346;28;1245;-81
2023/05/16 00:00:57;;;;;;;14.43;10.30;;;;;;;;;;523861;28;1162;-82
2023/05/16 00:01:12;;;;;;;12.90;9.75;;;;;;;;;;524876;28;1393;-81
2023/05/16 00:01:29;;;;;;;12.53;9.67;;;;;;;;;;523556;28;1307;-82
2023/05/16 00:01:44;;;;;;;12.90;9.98;;;;;;;;;;520809;28;1421;-80
2023/05/16 00:01:59;;;;;;;12.73;9.97;;;;;;;;;;520394;28;1216;-80
2023/05/16 00:02:15;;;;;;;12.40;9.93;;;;;;;;;;521711;28;1305;-80
2023/05/16 00:02:30;;;;;;;12.05;9.75;;;;;;;;;;520345;28;1185;-80
2023/05/16 00:02:45;;;;;;;12.10;9.63;;;;;;;;;;521711;28;1317;-82
2023/05/16 00:03:01;;;;;;;12.70;9.73;;;;;;;;;;522782;28;1347;-81
2023/05/16 00:03:17;;;;;;;12.23;10.00;;;;;;;;;;522787;28;1213;-82
2023/05/16 00:03:33;;;;;;;12.70;9.93;;;;;;;;;;522851;28;1277;-81
2023/05/16 00:03:48;;;;;;;13.65;10.13;;;;;;;;;;525264;28;1208;-82
2023/05/16 00:04:03;;;;;;;13.17;10.23;;;;;;;;;;524691;28;1218;-81
2023/05/16 00:04:19;;;;;;;13.15;9.95;;;;;;;;;;522858;28;1236;-81
2023/05/16 00:04:37;;;;;;;12.70;9.87;;;;;;;;;;519797;28;1282;-83
2023/05/16 00:04:52;;;;;;;12.43;9.68;;;;;;;;;;521664;28;1302;-81
2023/05/16 00:05:08;;;;;;;12.80;9.70;;;;;;;;;;522748;28;1232;-81
2023/05/16 00:05:24;;;;;;;13.00;10.02;;;;;;;;;;523148;28;1154;-81
2023/05/16 00:05:39;;;;;;;12.15;10.00;;;;;;;;;;521193;28;1370;-81
2023/05/16 00:05:55;;;;;;;12.88;10.18;;;;;;;;;;522034;28;1229;-81
2023/05/16 00:06:10;;;;;;;13.00;10.50;;;;;;;;;;520449;28;1220;-81
2023/05/16 00:06:25;;;;;;;11.93;10.57;;;;;;;;;;520488;28;1247;-80
2023/05/16 00:06:41;;;;;;;13.67;10.83;;;;;;;;;;521562;28;1332;-81
2023/05/16 00:06:56;;;;;;;15.53;10.80;;;;;;;;;;521287;28;1276;-82
2023/05/16 00:07:11;;;;;;;13.00;10.07;;;;;;;;;;520527;28;1331;-81
2023/05/16 00:07:26;;;;;;;11.67;10.30;;;;;;;;;;521372;28;1131;-80
2023/05/16 00:07:42;;;;;;;12.55;10.38;;;;;;;;;;520883;28;1064;-81
2023/05/16 00:07:58;;;;;;;12.48;10.13;;;;;;;;;;521556;28;1074;-81
2023/05/16 00:08:13;;;;;;;12.30;10.27;;;;;;;;;;523314;28;1568;-82
2023/05/16 00:08:28;;;;;;;12.97;10.20;;;;;;;;;;522579;28;1165;-81
2023/05/16 00:08:43;;;;;;;14.17;10.17;;;;;;;;;;524467;28;1181;-80
2023/05/16 00:08:59;;;;;;;14.47;10.47;;;;;;;;;;523812;28;1130;-81
2023/05/16 00:09:14;;;;;;;13.07;10.37;;;;;;;;;;524998;28;1424;-80
2023/05/16 00:09:29;;;;;;;13.03;10.00;;;;;;;;;;524358;28;1298;-81
2023/05/16 00:09:44;;;;;;;13.53;10.20;;;;;;;;;;524472;28;1202;-81
2023/05/16 00:09:59;;;;;;;12.60;10.30;;;;;;;;;;524426;28;1253;-82
2023/05/16 00:10:15;;;;;;;13.30;10.40;;;;;;;;;;526341;28;1180;-82
2023/05/16 00:10:30;;;;;;;13.00;10.50;;;;;;;;;;524848;28;1209;-81
2023/05/16 00:10:45;;;;;;;12.27;10.50;;;;;;;;;;523916;28;1256;-80
2023/05/16 00:11:00;;;;;;;13.32;10.77;;;;;;;;;;523713;28;1234;-81
2023/05/16 00:11:15;;;;;;;13.47;11.10;;;;;;;;;;524485;28;1308;-80
2023/05/16 00:11:31;;;;;;;12.27;10.70;;;;;;;;;;524717;28;1227;-81
2023/05/16 00:11:47;;;;;;;14.07;10.80;;;;;;;;;;525250;28;1325;-80
2023/05/16 00:12:02;;;;;;;14.13;10.85;;;;;;;;;;525228;28;1325;-81
2023/05/16 00:12:18;;;;;;;14.18;10.77;;;;;;;;;;525044;28;1229;-80
2023/05/16 00:12:35;;;;;;;14.55;10.80;;;;;;;;;;527336;28;1101;-81
2023/05/16 00:12:51;;;;;;;13.68;10.95;;;;;;;;;;525849;28;1587;-81
2023/05/16 00:13:06;;;;;;;13.37;11.00;;;;;;;;;;523793;28;1249;-81
2023/05/16 00:13:24;;;;;;;13.10;10.80;;;;;;;;;;521320;28;1345;-81
2023/05/16 00:13:41;;;;;;;13.82;11.10;;;;;;;;;;522188;28;1153;-81
2023/05/16 00:13:56;;;;;;;14.85;10.98;;;;;;;;;;523338;28;1237;-79
2023/05/16 00:14:11;;;;;;;14.20;11.10;;;;;;;;;;524050;28;1087;-80
2023/05/16 00:14:27;;;;;;;13.40;11.13;;;;;;;;;;522910;28;1227;-82
2023/05/16 00:14:42;;;;;;;12.97;11.17;;;;;;;;;;520707;28;1267;-81
2023/05/16 00:14:58;;;;;;;13.82;11.20;;;;;;;;;;524012;28;1233;-81
2023/05/16 00:15:13;;;;;;;14.47;11.03;;;;;;;;;;525390;28;1211;-81
2023/05/16 00:15:28;;;;;;;13.57;11.15;;;;;;;;;;525295;28;1126;-81
2023/05/16 00:15:44;;;;;;;13.87;11.43;;;;;;;;;;523208;28;1199;-80
2023/05/16 00:16:01;;;;;;;13.50;11.18;;;;;;;;;;522602;28;1055;-81
2023/05/16 00:16:16;;;;;;;13.70;10.93;;;;;;;;;;522025;28;1372;-80
2023/05/16 00:16:32;;;;;;;14.50;11.23;;;;;;;;;;524625;28;1248;-80
2023/05/16 00:16:47;;;;;;;14.10;11.60;;;;;;;;;;524277;28;1210;-80
2023/05/16 00:17:03;;;;;;;13.88;11.45;;;;;;;;;;525604;28;1189;-81
2023/05/16 00:17:19;;;;;;;13.60;11.23;;;;;;;;;;526356;27;1220;-80
2023/05/16 00:17:34;;;;;;;14.00;11.50;;;;;;;;;;525786;28;1297;-81
2023/05/16 00:17:50;;;;;;;13.90;11.60;;;;;;;;;;525428;28;1161;-81
2023/05/16 00:18:05;;;;;;;14.43;11.40;;;;;;;;;;522827;28;1479;-81
2023/05/16 00:18:25;;;;;;;15.20;11.23;;;;;;;;;;522954;28;1298;-82
2023/05/16 00:18:44;;;;;;;13.10;10.95;;;;;;;;;;524404;28;1102;-80
2023/05/16 00:18:59;;;;;;;13.75;11.20;;;;;;;;;;523291;28;1462;-81
2023/05/16 00:19:15;;;;;;;15.50;11.67;;;;;;;;;;523220;28;1090;-80
2023/05/16 00:19:30;;;;;;;14.95;11.32;;;;;;;;;;522597;28;1263;-82
2023/05/16 00:19:47;;;;;;;12.67;10.87;;;;;;;;;;522426;28;1237;-79
2023/05/16 00:20:09;;;;;;;13.35;10.85;;;;;;;;;;524844;28;1108;-80
2023/05/16 00:20:26;;;;;;;16.20;10.90;;;;;;;;;;525582;28;1236;-80
2023/05/16 00:20:41;;;;;;;15.50;10.90;;;;;;;;;;525205;28;1441;-81
2023/05/16 00:20:57;;;;;;;14.20;10.70;;;;;;;;;;525001;28;1204;-80
2023/05/16 00:21:13;;;;;;;13.77;10.30;;;;;;;;;;524844;28;1238;-81
2023/05/16 00:21:28;;;;;;;13.70;10.52;;;;;;;;;;523250;28;1303;-81
2023/05/16 00:21:43;;;;;;;13.80;10.80;;;;;;;;;;520526;28;1334;-81
2023/05/16 00:21:58;;;;;;;13.70;10.87;;;;;;;;;;520575;28;1251;-81
2023/05/16 00:22:16;;;;;;;14.53;11.10;;;;;;;;;;520830;28;1208;-81
2023/05/16 00:22:32;;;;;;;15.40;10.85;;;;;;;;;;520576;28;1351;-80
2023/05/16 00:22:47;;;;;;;14.10;10.70;;;;;;;;;;520502;28;1325;-81
2023/05/16 00:23:02;;;;;;;13.20;10.47;;;;;;;;;;521085;28;1229;-81
2023/05/16 00:23:18;;;;;;;12.47;10.23;;;;;;;;;;521853;28;1264;-81
2023/05/16 00:23:33;;;;;;;12.05;10.25;;;;;;;;;;521366;28;1374;-81
2023/05/16 00:23:48;;;;;;;12.77;10.43;;;;;;;;;;522765;28;1319;-80
2023/05/16 00:24:04;;;;;;;12.27;10.40;;;;;;;;;;525603;28;1348;-80
2023/05/16 00:24:19;;;;;;;12.10;10.63;;;;;;;;;;525472;28;1350;-81
2023/05/16 00:24:34;;;;;;;13.40;10.73;;;;;;;;;;527466;28;1161;-81
2023/05/16 00:24:49;;;;;;;13.57;10.37;;;;;;;;;;525454;28;1392;-80
2023/05/16 00:25:05;;;;;;;13.23;10.03;;;;;;;;;;524111;28;1229;-81
2023/05/16 00:25:20;;;;;;;14.75;10.25;;;;;;;;;;524834;28;1286;-80
2023/05/16 00:25:36;;;;;;;14.47;10.33;;;;;;;;;;523067;28;1216;-81
2023/05/16 00:25:51;;;;;;;12.93;10.05;;;;;;;;;;522772;28;1308;-81
2023/05/16 00:26:06;;;;;;;12.87;10.07;;;;;;;;;;524876;28;1457;-81
2023/05/16 00:26:21;;;;;;;12.80;10.27;;;;;;;;;;525516;28;1176;-81
2023/05/16 00:26:37;;;;;;;14.27;10.25;;;;;;;;;;523356;28;1322;-81
2023/05/16 00:26:52;;;;;;;14.90;10.10;;;;;;;;;;523111;28;1032;-81
2023/05/16 00:27:07;;;;;;;14.40;10.10;;;;;;;;;;521975;28;1205;-81
2023/05/16 00:27:22;;;;;;;14.10;10.10;;;;;;;;;;525047;28;1049;-80
2023/05/16 00:27:37;;;;;;;14.27;10.20;;;;;;;;;;522901;28;1220;-81
2023/05/16 00:27:52;;;;;;;13.80;10.25;;;;;;;;;;525132;28;1114;-81
2023/05/16 00:28:08;;;;;;;13.60;10.50;;;;;;;;;;525588;28;1175;-81
2023/05/16 00:28:23;;;;;;;13.43;10.17;;;;;;;;;;524294;28;1253;-80
2023/05/16 00:28:38;;;;;;;12.53;10.07;;;;;;;;;;525076;28;1156;-80
2023/05/16 00:28:53;;;;;;;12.47;10.43;;;;;;;;;;523358;28;1270;-80
2023/05/16 00:29:08;;;;;;;12.43;10.20;;;;;;;;;;521047;28;1305;-82
2023/05/16 00:29:24;;;;;;;13.50;10.23;;;;;;;;;;521113;28;1357;-81
2023/05/16 00:29:39;;;;;;;13.57;10.40;;;;;;;;;;520829;28;1308;-80
2023/05/16 00:29:54;;;;;;;12.23;10.17;;;;;;;;;;520201;28;1217;-80
2023/05/16 00:30:10;;;;;;;12.32;10.15;;;;;;;;;;520611;28;1275;-82
2023/05/16 00:30:25;;;;;;;13.00;10.10;;;;;;;;;;522702;28;1258;-81
2023/05/16 00:30:40;;;;;;;11.97;10.07;;;;;;;;;;524657;28;1167;-79
2023/05/16 00:30:55;;;;;;;12.00;10.15;;;;;;;;;;522229;28;1235;-80
2023/05/16 00:31:11;;;;;;;14.23;10.50;;;;;;;;;;524134;28;1205;-81
2023/05/16 00:31:26;;;;;;;13.40;10.57;;;;;;;;;;524550;28;1367;-81
2023/05/16 00:31:41;;;;;;;12.50;10.43;;;;;;;;;;524550;28;1126;-82
2023/05/16 00:31:56;;;;;;;13.10;10.35;;;;;;;;;;524359;28;1106;-81
2023/05/16 00:32:12;;;;;;;13.70;10.17;;;;;;;;;;522612;28;1316;-82
2023/05/16 00:32:27;;;;;;;14.03;10.20;;;;;;;;;;522214;28;1325;-80
2023/05/16 00:32:42;;;;;;;12.93;9.90;;;;;;;;;;522094;28;1193;-81
2023/05/16 00:32:57;;;;;;;12.32;9.70;;;;;;;;;;523988;28;1161;-81
2023/05/16 00:33:13;;;;;;;12.40;9.93;;;;;;;;;;521705;28;1282;-82
2023/05/16 00:33:28;;;;;;;12.97;10.20;;;;;;;;;;524761;28;1096;-79
2023/05/16 00:33:43;;;;;;;13.13;10.00;;;;;;;;;;523142;28;1203;-82
2023/05/16 00:33:58;;;;;;;13.05;10.10;;;;;;;;;;522449;28;1326;-81
2023/05/16 00:34:13;;;;;;;13.27;10.53;;;;;;;;;;522975;28;1240;-81
2023/05/16 00:34:29;;;;;;;13.10;10.43;;;;;;;;;;521391;28;1167;-80
2023/05/16 00:34:44;;;;;;;13.17;10.13;;;;;;;;;;524069;28;1115;-80
2023/05/16 00:34:59;;;;;;;12.87;9.93;;;;;;;;;;523365;28;1174;-80
2023/05/16 00:35:14;;;;;;;11.93;9.63;;;;;;;;;;523119;28;1422;-80
2023/05/16 00:35:30;;;;;;;13.40;9.93;;;;;;;;;;523015;28;1055;-81
2023/05/16 00:35:45;;;;;;;14.10;10.35;;;;;;;;;;525452;28;1125;-80
2023/05/16 00:36:00;;;;;;;13.13;10.40;;;;;;;;;;525465;28;1244;-80
2023/05/16 00:36:16;;;;;;;13.90;10.50;;;;;;;;;;525533;28;1165;-81
2023/05/16 00:36:31;;;;;;;12.83;10.20;;;;;;;;;;527485;28;1324;-82
2023/05/16 00:36:47;;;;;;;13.07;9.93;;;;;;;;;;524842;28;1251;-80
2023/05/16 00:37:02;;;;;;;13.05;10.05;;;;;;;;;;523972;28;1201;-82
2023/05/16 00:37:17;;;;;;;12.03;10.00;;;;;;;;;;525002;28;1320;-81
2023/05/16 00:37:33;;;;;;;13.20;10.50;;;;;;;;;;525257;28;1168;-82
2023/05/16 00:37:49;;;;;;;12.93;10.37;;;;;;;;;;525329;28;1185;-81
2023/05/16 00:38:04;;;;;;;12.45;10.13;;;;;;;;;;525164;28;1194;-81
2023/05/16 00:38:19;;;;;;;13.32;10.48;;;;;;;;;;522832;28;1473;-81
2023/05/16 00:38:34;;;;;;;13.10;10.17;;;;;;;;;;523447;28;1231;-82
2023/05/16 00:38:50;;;;;;;13.57;9.63;;;;;;;;;;525311;28;1077;-81
2023/05/16 00:39:05;;;;;;;13.83;9.70;;;;;;;;;;523482;28;1204;-82
2023/05/16 00:39:20;;;;;;;11.27;9.65;;;;;;;;;;523037;28;1260;-82
2023/05/16 00:39:35;;;;;;;11.57;9.57;;;;;;;;;;522924;28;1203;-81
2023/05/16 00:39:50;;;;;;;13.93;9.77;;;;;;;;;;520836;28;1158;-81
2023/05/16 00:40:06;;;;;;;13.90;9.37;;;;;;;;;;521260;28;1115;-81
2023/05/16 00:40:21;;;;;;;13.18;9.20;;;;;;;;;;520957;28;1328;-81
2023/05/16 00:40:37;;;;;;;12.17;9.33;;;;;;;;;;523169;28;1179;-80
2023/05/16 00:40:52;;;;;;;11.70;9.15;;;;;;;;;;523304;28;1193;-80
2023/05/16 00:41:07;;;;;;;12.10;9.20;;;;;;;;;;524782;28;1915;-81
2023/05/16 00:41:22;;;;;;;12.93;9.30;;;;;;;;;;522258;28;1172;-80
2023/05/16 00:41:38;;;;;;;13.83;9.40;;;;;;;;;;523800;28;1217;-80
2023/05/16 00:41:53;;;;;;;13.23;9.55;;;;;;;;;;526472;28;1068;-81
2023/05/16 00:42:08;;;;;;;12.77;9.63;;;;;;;;;;526939;27;1141;-81
2023/05/16 00:42:23;;;;;;;12.93;9.50;;;;;;;;;;526661;28;1181;-80
2023/05/16 00:42:39;;;;;;;11.83;9.17;;;;;;;;;;525231;28;1470;-82
2023/05/16 00:42:54;;;;;;;10.77;8.93;;;;;;;;;;525339;28;1085;-81
2023/05/16 00:43:09;;;;;;;10.50;8.93;;;;;;;;;;525115;28;1164;-81
2023/05/16 00:43:24;;;;;;;10.47;9.00;;;;;;;;;;525223;28;1189;-80
2023/05/16 00:43:39;;;;;;;11.17;9.03;;;;;;;;;;524494;28;1248;-80
2023/05/16 00:43:55;;;;;;;11.97;9.13;;;;;;;;;;525615;28;1049;-80
2023/05/16 00:44:10;;;;;;;12.50;9.10;;;;;;;;;;524796;28;1233;-81
2023/05/16 00:44:25;;;;;;;11.87;8.80;;;;;;;;;;524940;28;1235;-81
2023/05/16 00:44:40;;;;;;;11.93;8.63;;;;;;;;;;524827;28;1300;-80
2023/05/16 00:44:56;;;;;;;12.05;8.70;;;;;;;;;;522933;28;1194;-81
2023/05/16 00:45:11;;;;;;;11.63;8.50;;;;;;;;;;523097;28;1353;-81
2023/05/16 00:45:27;;;;;;;11.40;8.40;;;;;;;;;;522608;28;1264;-81
2023/05/16 00:45:42;;;;;;;10.60;8.38;;;;;;;;;;520528;28;1237;-80
2023/05/16 00:45:57;;;;;;;11.30;8.60;;;;;;;;;;520164;28;1241;-81
2023/05/16 00:46:12;;;;;;;12.40;8.60;;;;;;;;;;523061;28;1272;-82
2023/05/16 00:46:27;;;;;;;11.03;8.47;;;;;;;;;;522884;28;1195;-81
2023/05/16 00:46:42;;;;;;;10.60;8.30;;;;;;;;;;522286;28;1247;-81
2023/05/16 00:46:59;;;;;;;11.20;8.10;;;;;;;;;;522148;28;1195;-80
2023/05/16 00:47:14;;;;;;;11.30;8.23;;;;;;;;;;521721;28;1268;-81
2023/05/16 00:47:29;;;;;;;11.93;8.10;;;;;;;;;;522643;28;1164;-81
2023/05/16 00:47:44;;;;;;;11.60;8.03;;;;;;;;;;523349;28;1126;-80
2023/05/16 00:48:00;;;;;;;10.83;8.23;;;;;;;;;;522072;28;1199;-79
2023/05/16 00:48:15;;;;;;;12.17;8.40;;;;;;;;;;522988;28;1222;-81
2023/05/16 00:48:31;;;;;;;11.33;8.17;;;;;;;;;;521000;28;1254;-81
2023/05/16 00:48:46;;;;;;;10.48;8.00;;;;;;;;;;518684;28;1212;-80
2023/05/16 00:49:01;;;;;;;11.07;7.90;;;;;;;;;;520883;28;1227;-81
2023/05/16 00:49:17;;;;;;;11.57;7.80;;;;;;;;;;522773;28;1329;-82
2023/05/16 00:49:32;;;;;;;10.73;7.88;;;;;;;;;;522901;28;1202;-81
2023/05/16 00:49:47;;;;;;;10.20;8.03;;;;;;;;;;523169;28;1099;-82
2023/05/16 00:50:02;;;;;;;10.37;7.90;;;;;;;;;;523088;28;1118;-81
2023/05/16 00:50:18;;;;;;;10.65;7.97;;;;;;;;;;521456;28;1206;-79
2023/05/16 00:50:33;;;;;;;10.57;8.20;;;;;;;;;;522265;28;1187;-81
2023/05/16 00:50:49;;;;;;;9.63;7.80;;;;;;;;;;521977;28;1146;-81
2023/05/16 00:51:08;;;;;;;10.65;7.57;;;;;;;;;;522326;28;1387;-80
2023/05/16 00:51:23;;;;;;;10.35;7.65;;;;;;;;;;522733;28;1408;-81
2023/05/16 00:51:38;;;;;;;9.47;7.60;;;;;;;;;;522546;28;1321;-80
2023/05/16 00:51:54;;;;;;;10.32;7.70;;;;;;;;;;522390;28;1373;-81
2023/05/16 00:52:10;;;;;;;11.47;7.70;;;;;;;;;;518804;28;1309;-81
2023/05/16 00:52:25;;;;;;;10.85;7.90;;;;;;;;;;522586;28;1295;-81
2023/05/16 00:52:40;;;;;;;11.05;8.13;;;;;;;;;;522612;28;1364;-81
2023/05/16 00:52:56;;;;;;;10.87;7.83;;;;;;;;;;519147;28;1272;-82
2023/05/16 00:53:11;;;;;;;10.10;7.60;;;;;;;;;;519962;28;1346;-82
2023/05/16 00:53:26;;;;;;;10.00;7.50;;;;;;;;;;520681;28;1197;-81
2023/05/16 00:53:41;;;;;;;10.20;7.80;;;;;;;;;;520639;28;1329;-81
2023/05/16 00:53:57;;;;;;;9.50;8.03;;;;;;;;;;520660;28;1260;-82
2023/05/16 00:54:12;;;;;;;9.93;7.90;;;;;;;;;;521832;28;1173;-80
2023/05/16 00:54:28;;;;;;;11.88;7.97;;;;;;;;;;525000;28;1255;-80
2023/05/16 00:54:44;;;;;;;11.90;8.00;;;;;;;;;;524939;28;1306;-81
2023/05/16 00:55:00;;;;;;;11.33;8.10;;;;;;;;;;522797;28;1298;-80
2023/05/16 00:55:15;;;;;;;11.52;8.05;;;;;;;;;;523091;28;1185;-81
2023/05/16 00:55:31;;;;;;;12.35;7.90;;;;;;;;;;525287;28;1232;-80
2023/05/16 00:55:46;;;;;;;11.53;7.93;;;;;;;;;;525164;28;1078;-81
2023/05/16 00:56:02;;;;;;;9.85;7.85;;;;;;;;;;524733;28;1255;-81
2023/05/16 00:56:17;;;;;;;10.47;7.90;;;;;;;;;;524238;28;1074;-81
2023/05/16 00:56:32;;;;;;;10.70;7.90;;;;;;;;;;527547;28;1270;-81
2023/05/16 00:56:48;;;;;;;9.95;8.02;;;;;;;;;;525378;28;1174;-82
2023/05/16 00:57:04;;;;;;;10.57;8.10;;;;;;;;;;522129;28;1327;-81
2023/05/16 00:57:19;;;;;;;10.35;7.82;;;;;;;;;;523155;28;1406;-80
2023/05/16 00:57:34;;;;;;;10.10;7.73;;;;;;;;;;522501;28;1187;-81
2023/05/16 00:57:49;;;;;;;10.52;7.90;;;;;;;;;;521783;28;1239;-81
2023/05/16 00:58:05;;;;;;;10.03;7.87;;;;;;;;;;520392;28;1354;-81
2023/05/16 00:58:21;;;;;;;9.43;7.78;;;;;;;;;;519515;28;1396;-81
2023/05/16 00:58:36;;;;;;;9.50;7.70;;;;;;;;;;521201;28;1087;-81
2023/05/16 00:58:52;;;;;;;10.00;7.83;;;;;;;;;;522853;28;1284;-81
2023/05/16 00:59:07;;;;;;;11.30;8.17;;;;;;;;;;524785;28;1599;-81
2023/05/16 00:59:22;;;;;;;11.20;8.10;;;;;;;;;;525109;28;1161;-80
2023/05/16 00:59:39;;;;;;;9.90;7.93;;;;;;;;;;523787;28;1204;-80
2023/05/16 00:59:54;;;;;;;10.13;7.80;;;;;;;;;;525208;28;1326;-80
2023/05/16 01:00:09;;;;;;;10.25;7.85;;;;;;;;;;524097;28;1325;-78
2023/05/16 01:00:25;;;;;;;11.83;8.00;;;;;;;;;;524445;28;1131;-80
2023/05/16 01:00:40;;;;;;;12.03;8.30;;;;;;;;;;523111;28;1375;-81
2023/05/16 01:00:55;;;;;;;10.77;8.18;;;;;;;;;;525575;28;1321;-80
2023/05/16 01:01:11;;;;;;;12.27;8.10;;;;;;;;;;524780;28;1975;-82
2023/05/16 01:01:28;;;;;;;12.25;8.20;;;;;;;;;;524966;28;1225;-80
2023/05/16 01:01:45;;;;;;;11.75;8.15;;;;;;;;;;525208;28;1212;-81
2023/05/16 01:02:00;;;;;;;11.10;8.02;;;;;;;;;;524036;28;1328;-79
2023/05/16 01:02:15;;;;;;;10.38;7.93;;;;;;;;;;523217;28;1224;-80
2023/05/16 01:02:31;;;;;;;11.27;7.90;;;;;;;;;;523280;28;1046;-80
2023/05/16 01:02:47;;;;;;;11.95;8.00;;;;;;;;;;523406;28;1337;-81
2023/05/16 01:03:03;;;;;;;11.77;7.90;;;;;;;;;;525705;28;1146;-80
2023/05/16 01:03:19;;;;;;;9.73;7.78;;;;;;;;;;526219;28;1204;-79
2023/05/16 01:03:34;;;;;;;9.88;7.80;;;;;;;;;;526852;28;1131;-80
2023/05/16 01:03:49;;;;;;;11.07;7.77;;;;;;;;;;524436;28;1224;-80
2023/05/16 01:04:05;;;;;;;11.33;7.70;;;;;;;;;;523519;28;1182;-81
2023/05/16 01:04:21;;;;;;;9.82;7.78;;;;;;;;;;526798;28;1172;-80
2023/05/16 01:04:36;;;;;;;10.30;7.78;;;;;;;;;;525203;28;1313;-81
2023/05/16 01:04:51;;;;;;;11.27;7.70;;;;;;;;;;524188;28;1203;-81
2023/05/16 01:05:07;;;;;;;10.47;7.70;;;;;;;;;;522795;28;1313;-81
2023/05/16 01:05:22;;;;;;;9.23;7.70;;;;;;;;;;523530;28;1153;-81
2023/05/16 01:05:38;;;;;;;9.93;8.10;;;;;;;;;;523242;28;1361;-80
2023/05/16 01:05:53;;;;;;;11.05;8.27;;;;;;;;;;521425;28;1215;-81
2023/05/16 01:06:08;;;;;;;10.70;7.90;;;;;;;;;;522040;28;999;-80
2023/05/16 01:06:23;;;;;;;10.93;7.87;;;;;;;;;;523406;28;1050;-80
2023/05/16 01:06:38;;;;;;;10.20;7.90;;;;;;;;;;522958;28;1197;-80
2023/05/16 01:06:55;;;;;;;8.93;7.60;;;;;;;;;;520942;28;1187;-80
2023/05/16 01:07:10;;;;;;;10.15;7.90;;;;;;;;;;520505;28;1507;-81
2023/05/16 01:07:26;;;;;;;11.13;8.10;;;;;;;;;;519399;28;1244;-81
2023/05/16 01:07:41;;;;;;;10.53;7.77;;;;;;;;;;521322;28;1096;-81
2023/05/16 01:07:56;;;;;;;9.67;7.83;;;;;;;;;;522827;28;1294;-80
2023/05/16 01:08:11;;;;;;;10.57;8.00;;;;;;;;;;520227;28;1286;-80
2023/05/16 01:08:27;;;;;;;12.27;8.48;;;;;;;;;;520616;28;1132;-80
2023/05/16 01:08:42;;;;;;;12.17;8.33;;;;;;;;;;521103;28;1474;-80
2023/05/16 01:08:58;;;;;;;10.73;7.60;;;;;;;;;;521138;28;1114;-80
2023/05/16 01:09:13;;;;;;;10.80;7.80;;;;;;;;;;522965;28;1131;-81
2023/05/16 01:09:28;;;;;;;10.57;7.70;;;;;;;;;;522409;28;1208;-82
2023/05/16 01:09:43;;;;;;;10.57;7.27;;;;;;;;;;520796;28;1163;-80
2023/05/16 01:09:59;;;;;;;11.15;7.47;;;;;;;;;;523379;28;1129;-81
2023/05/16 01:10:14;;;;;;;10.77;7.53;;;;;;;;;;522154;28;1179;-80
2023/05/16 01:10:38;;;;;;;10.60;7.50;;;;;;;;;;524089;28;1036;-80
2023/05/16 01:11:12;;;;;;;10.45;7.50;;;;;;;;;;526287;28;1322;-81
2023/05/16 01:11:31;;;;;;;10.05;7.30;;;;;;;;;;525653;28;1228;-82
2023/05/16 01:11:46;;;;;;;10.55;7.25;;;;;;;;;;526597;28;1398;-79
2023/05/16 01:12:07;;;;;;;9.80;6.87;;;;;;;;;;523461;28;1345;-80
2023/05/16 01:12:28;;;;;;;9.85;6.53;;;;;;;;;;524047;28;1133;-81
2023/05/16 01:12:53;;;;;;;10.13;6.85;;;;;;;;;;525544;28;1226;-81
2023/05/16 01:13:12;;;;;;;8.70;7.00;;;;;;;;;;521573;28;1492;-82
2023/05/16 01:13:32;;;;;;;9.52;7.28;;;;;;;;;;520818;28;1493;-80
2023/05/16 01:14:05;;;;;;;9.65;7.13;;;;;;;;;;519991;28;1270;-81
2023/05/16 01:14:20;;;;;;;11.60;7.03;;;;;;;;;;522420;28;1622;-81
2023/05/16 01:14:39;;;;;;;9.43;6.77;;;;;;;;;;520320;28;1586;-78
2023/05/16 01:14:54;;;;;;;7.43;6.57;;;;;;;;;;519802;28;1298;-80
2023/05/16 01:15:12;;;;;;;8.30;6.63;;;;;;;;;;518765;28;1378;-80
2023/05/16 01:15:29;;;;;;;9.23;6.50;;;;;;;;;;520616;28;1331;-81
2023/05/16 01:15:49;;;;;;;9.93;6.40;;;;;;;;;;522894;28;1319;-81
2023/05/16 01:16:05;;;;;;;9.25;6.40;;;;;;;;;;521096;28;1358;-80
2023/05/16 01:16:32;;;;;;;8.57;6.30;;;;;;;;;;520593;28;1385;-80
2023/05/16 01:16:53;;;;;;;8.95;6.70;;;;;;;;;;520798;28;1209;-80
2023/05/16 01:17:19;;;;;;;8.30;6.35;;;;;;;;;;521958;28;1226;-80
2023/05/16 01:17:49;;;;;;;8.77;6.10;;;;;;;;;;523485;28;1341;-81
2023/05/16 01:18:13;;;;;;;7.85;6.03;;;;;;;;;;522185;28;1086;-82
2023/05/16 01:18:31;;;;;;;9.10;6.20;;;;;;;;;;524571;28;1149;-80
2023/05/16 01:19:00;;;;;;;8.77;5.97;;;;;;;;;;523228;28;1270;-80
2023/05/16 01:19:31;;;;;;;7.90;5.80;;;;;;;;;;521091;28;1130;-80
2023/05/16 01:19:52;;;;;;;6.90;5.80;;;;;;;;;;523927;28;1212;-81
2023/05/16 01:20:14;;;;;;;6.57;5.65;;;;;;;;;;525753;28;1114;-79
2023/05/16 01:20:36;;;;;;;8.27;5.95;;;;;;;;;;524127;28;1559;-80
2023/05/16 01:21:02;;;;;;;7.68;5.53;;;;;;;;;;522408;28;1282;-81
2023/05/16 01:21:37;;;;;;;8.88;6.05;;;;;;;;;;523529;28;1325;-80
2023/05/16 01:21:56;;;;;;;7.75;5.68;;;;;;;;;;524606;28;1476;-81
2023/05/16 01:22:15;;;;;;;8.27;6.05;;;;;;;;;;523341;28;1168;-83
2023/05/16 01:23:01;;;;;;;7.68;5.55;;;;;;;;;;526801;28;1459;-80
2023/05/16 01:23:30;;;;;;;6.63;5.57;;;;;;;;;;520537;28;1385;-81
2023/05/16 01:23:51;;;;;;;8.93;5.45;;;;;;;;;;520556;28;1237;-81
2023/05/16 01:24:15;;;;;;;8.25;5.35;;;;;;;;;;518589;28;1402;-81
2023/05/16 01:24:35;;;;;;;7.70;5.47;;;;;;;;;;516931;28;1276;-81
2023/05/16 01:24:52;;;;;;;8.30;5.70;;;;;;;;;;516554;28;1321;-80
2023/05/16 01:25:31;;;;;;;7.75;5.40;;;;;;;;;;513849;28;1264;-81
2023/05/16 01:25:46;;;;;;;7.45;5.30;;;;;;;;;;522696;28;1294;-82
2023/05/16 01:26:13;;;;;;;7.63;5.37;;;;;;;;;;524459;28;1283;-82
2023/05/16 01:26:29;;;;;;;8.45;5.75;;;;;;;;;;525550;28;1249;-81
2023/05/16 01:26:45;;;;;;;7.85;5.57;;;;;;;;;;523655;28;1387;-82
2023/05/16 01:27:03;;;;;;;7.00;5.43;;;;;;;;;;524119;28;1177;-81
2023/05/16 01:27:19;;;;;;;6.28;5.15;;;;;;;;;;524928;28;1510;-81
2023/05/16 01:27:36;;;;;;;6.05;5.10;;;;;;;;;;525261;28;1412;-81
2023/05/16 01:27:52;;;;;;;6.45;5.30;;;;;;;;;;527185;28;1202;-81
2023/05/16 01:28:08;;;;;;;6.70;5.40;;;;;;;;;;525974;28;1093;-82
2023/05/16 01:28:23;;;;;;;7.50;5.50;;;;;;;;;;524884;28;1325;-82
2023/05/16 01:28:40;;;;;;;7.93;5.33;;;;;;;;;;525468;28;1113;-81
2023/05/16 01:28:55;;;;;;;6.55;5.20;;;;;;;;;;522880;28;1485;-81
2023/05/16 01:29:11;;;;;;;6.07;5.20;;;;;;;;;;524085;28;1180;-80
2023/05/16 01:29:26;;;;;;;7.55;5.20;;;;;;;;;;523701;28;1437;-81
2023/05/16 01:29:41;;;;;;;7.97;5.33;;;;;;;;;;522746;28;1307;-80
2023/05/16 01:29:56;;;;;;;8.13;5.37;;;;;;;;;;522126;28;1347;-79
2023/05/16 01:30:16;;;;;;;8.35;5.15;;;;;;;;;;522662;28;1339;-79
2023/05/16 01:30:33;;;;;;;6.85;5.10;;;;;;;;;;522961;28;1224;-81
2023/05/16 01:30:49;;;;;;;7.18;5.18;;;;;;;;;;523172;28;1442;-81
2023/05/16 01:31:05;;;;;;;6.95;5.25;;;;;;;;;;521971;28;1015;-81
2023/05/16 01:31:21;;;;;;;6.53;5.27;;;;;;;;;;523341;28;1082;-80
2023/05/16 01:31:36;;;;;;;7.00;5.25;;;;;;;;;;523595;28;1295;-81
2023/05/16 01:31:51;;;;;;;6.90;5.20;;;;;;;;;;522990;28;1183;-81
2023/05/16 01:32:06;;;;;;;6.37;4.90;;;;;;;;;;525199;28;1220;-81
2023/05/16 01:32:21;;;;;;;6.07;4.95;;;;;;;;;;524688;28;1219;-81
2023/05/16 01:32:37;;;;;;;5.50;4.80;;;;;;;;;;524736;28;1404;-81
2023/05/16 01:32:52;;;;;;;5.20;4.43;;;;;;;;;;524003;28;1400;-80
2023/05/16 01:33:07;;;;;;;6.00;4.50;;;;;;;;;;526648;28;1259;-81
2023/05/16 01:33:23;;;;;;;6.40;4.50;;;;;;;;;;523358;28;1327;-82
2023/05/16 01:33:38;;;;;;;6.13;4.73;;;;;;;;;;522610;28;1221;-81
2023/05/16 01:33:53;;;;;;;5.77;4.90;;;;;;;;;;525530;28;1239;-80
2023/05/16 01:34:08;;;;;;;5.90;4.80;;;;;;;;;;524324;28;1252;-82
2023/05/16 01:34:23;;;;;;;6.87;5.00;;;;;;;;;;522050;28;1312;-81
2023/05/16 01:34:39;;;;;;;5.97;4.68;;;;;;;;;;522491;28;1211;-81
2023/05/16 01:34:54;;;;;;;5.87;4.80;;;;;;;;;;521492;28;1335;-80
2023/05/16 01:35:10;;;;;;;6.87;5.20;;;;;;;;;;522224;28;1401;-80
2023/05/16 01:35:26;;;;;;;6.65;4.93;;;;;;;;;;522298;28;1063;-81
2023/05/16 01:35:53;;;;;;;6.77;4.77;;;;;;;;;;523625;28;1161;-82
2023/05/16 01:36:15;;;;;;;6.60;4.93;;;;;;;;;;524706;28;1322;-80
2023/05/16 01:36:30;;;;;;;5.60;4.78;;;;;;;;;;521711;28;1389;-81
2023/05/16 01:36:57;;;;;;;5.60;4.60;;;;;;;;;;522512;28;1356;-81
2023/05/16 01:37:28;;;;;;;7.20;4.85;;;;;;;;;;522910;28;1416;-80
2023/05/16 01:37:47;;;;;;;10.52;4.82;;;;;;;;;;525364;28;1141;-80
2023/05/16 01:38:14;;;;;;;5.90;4.93;;;;;;;;;;523990;28;1405;-80
2023/05/16 01:38:40;;;;;;;6.30;4.80;;;;;;;;;;524737;28;1418;-81
2023/05/16 01:39:00;;;;;;;6.43;5.00;;;;;;;;;;524037;28;1162;-81
2023/05/16 01:39:26;;;;;;;5.68;4.70;;;;;;;;;;524683;28;1450;-80
2023/05/16 01:39:44;;;;;;;6.28;4.78;;;;;;;;;;521992;28;1362;-82
2023/05/16 01:40:06;;;;;;;6.13;4.90;;;;;;;;;;523979;28;1063;-81
2023/05/16 01:40:27;;;;;;;6.43;4.55;;;;;;;;;;526126;28;1173;-81
2023/05/16 01:41:02;;;;;;;6.13;4.80;;;;;;;;;;523461;28;1353;-80
2023/05/16 01:41:20;;;;;;;6.28;4.80;;;;;;;;;;526865;28;1185;-81
2023/05/16 01:41:48;;;;;;;6.68;4.72;;;;;;;;;;528299;28;1492;-82
2023/05/16 01:42:05;;;;;;;6.40;4.80;;;;;;;;;;527108;28;1481;-81